Time;durP1;ratioP1;P1;durP2;ratioP2;P2;SDS_P1;SDS_P2;PMS_P1;PMS_P2;Temp;Humidity;BMP_temperature;BMP_pressure;BME280_temperature;BME280_humidity;BME280_pressure;Samples;Min_cycle;Max_cycle;Signal;HPM_P1;HPM_P2
2022/10/05 00:01:26;;;;;;;26.52;11.50;;;;;;;13.85;100.00;101459.72;5055600;28;20111;-85
2022/10/05 00:04:19;;;;;;;17.00;11.30;;;;;;;13.86;100.00;101459.59;5061421;28;20040;-85
2022/10/05 00:06:49;;;;;;;18.88;10.93;;;;;;;13.82;100.00;101462.72;5050916;28;20503;-85
2022/10/05 00:09:20;;;;;;;20.20;11.55;;;;;;;13.85;100.00;101468.00;5057464;28;20060;-85
2022/10/05 00:11:46;;;;;;;22.27;11.35;;;;;;;13.88;100.00;101473.25;5041904;28;20095;-85
2022/10/05 00:14:37;;;;;;;19.02;11.55;;;;;;;13.88;100.00;101463.09;5025918;28;20029;-84
2022/10/05 00:17:04;;;;;;;23.65;11.68;;;;;;;13.86;100.00;101456.00;5040392;28;20041;-85
2022/10/05 00:19:37;;;;;;;18.95;11.38;;;;;;;13.82;100.00;101460.84;5057376;28;20488;-86
2022/10/05 00:22:15;;;;;;;17.95;11.15;;;;;;;13.78;100.00;101462.97;5040214;28;20036;-85
2022/10/05 00:24:40;;;;;;;20.80;11.23;;;;;;;13.84;100.00;101460.72;5055152;28;20029;-85
2022/10/05 00:27:20;;;;;;;22.13;12.25;;;;;;;13.76;100.00;101454.00;5025806;28;20036;-85
2022/10/05 00:29:48;;;;;;;21.50;12.13;;;;;;;13.74;100.00;101446.84;5042151;28;20156;-85
2022/10/05 00:32:13;;;;;;;23.10;11.80;;;;;;;13.73;100.00;101439.63;5043880;28;20033;-84
2022/10/05 00:34:40;;;;;;;21.20;11.93;;;;;;;13.74;100.00;101444.09;5049108;28;20037;-85
2022/10/05 00:37:06;;;;;;;20.58;11.65;;;;;;;13.77;100.00;101443.84;5042666;28;20033;-85
2022/10/05 00:39:34;;;;;;;19.48;11.50;;;;;;;13.83;100.00;101442.47;5042717;28;20037;-84
2022/10/05 00:42:14;;;;;;;18.23;11.32;;;;;;;13.79;100.00;101444.63;5043343;28;20025;-85
2022/10/05 00:45:12;;;;;;;18.40;11.48;;;;;;;13.72;100.00;101443.34;5072759;28;20411;-85
2022/10/05 00:47:43;;;;;;;21.80;12.02;;;;;;;13.77;100.00;101449.34;5076333;28;20041;-85
2022/10/05 00:50:33;;;;;;;21.17;11.73;;;;;;;13.70;100.00;101443.47;5079722;28;20127;-86
2022/10/05 00:53:28;;;;;;;15.30;11.25;;;;;;;13.67;100.00;101449.22;5065135;28;20495;-84
2022/10/05 00:56:12;;;;;;;20.42;12.18;;;;;;;13.66;100.00;101449.34;5043839;28;20033;-84
2022/10/05 00:59:13;;;;;;;21.15;11.63;;;;;;;13.67;100.00;101443.72;5055645;28;20033;-85
2022/10/05 01:01:48;;;;;;;19.77;11.38;;;;;;;13.63;100.00;101436.75;5062349;28;20039;-85
2022/10/05 01:04:30;;;;;;;24.45;11.82;;;;;;;13.59;100.00;101429.72;5061665;28;20145;-84
2022/10/05 01:07:15;;;;;;;20.75;11.98;;;;;;;13.64;100.00;101443.13;5061667;28;20123;-85
2022/10/05 01:09:46;;;;;;;26.50;11.88;;;;;;;13.65;100.00;101445.75;5061301;28;20072;-85
2022/10/05 01:12:36;;;;;;;22.40;11.98;;;;;;;13.60;100.00;101442.50;5045982;28;20037;-85
2022/10/05 01:15:02;;;;;;;20.73;11.35;;;;;;;13.62;100.00;101431.38;5025694;28;20032;-84
2022/10/05 01:17:40;;;;;;;19.50;10.50;;;;;;;13.58;100.00;101428.88;5026327;28;20025;-85
2022/10/05 01:20:10;;;;;;;22.85;12.15;;;;;;;13.59;100.00;101429.72;5045622;28;20025;-85
2022/10/05 01:22:54;;;;;;;24.90;11.50;;;;;;;13.57;100.00;101431.75;5063921;28;20025;-84
2022/10/05 01:25:32;;;;;;;23.40;12.18;;;;;;;13.59;100.00;101427.88;5047721;28;20024;-85
2022/10/05 01:28:43;;;;;;;24.25;11.52;;;;;;;13.57;100.00;101421.59;5063520;28;20037;-84
2022/10/05 01:31:34;;;;;;;20.98;10.75;;;;;;;13.54;100.00;101413.63;5011861;28;20033;-83
2022/10/05 01:34:07;;;;;;;25.75;12.68;;;;;;;13.56;100.00;101411.63;5062010;28;20492;-84
2022/10/05 01:36:52;;;;;;;24.15;11.70;;;;;;;13.52;100.00;101407.34;5044729;28;20148;-84
2022/10/05 01:39:56;;;;;;;21.35;11.07;;;;;;;13.51;100.00;101405.63;5061453;28;20021;-84
2022/10/05 01:42:33;;;;;;;22.30;11.25;;;;;;;13.50;100.00;101411.25;5060306;28;20064;-85
2022/10/05 01:45:02;;;;;;;23.60;11.02;;;;;;;13.48;100.00;101407.72;5077423;28;20082;-85
2022/10/05 01:47:46;;;;;;;18.05;11.20;;;;;;;13.49;100.00;101399.34;5062898;28;20033;-85
2022/10/05 01:50:34;;;;;;;22.42;11.05;;;;;;;13.50;100.00;101408.50;5048967;28;20074;-86
2022/10/05 01:53:26;;;;;;;25.52;11.45;;;;;;;13.51;100.00;101404.72;5055341;28;20033;-86
2022/10/05 01:56:01;;;;;;;21.10;11.48;;;;;;;13.43;100.00;101388.88;5061235;28;20553;-85
2022/10/05 01:58:38;;;;;;;18.25;12.32;;;;;;;13.51;100.00;101400.13;5044723;28;20503;-86
2022/10/05 02:01:19;;;;;;;20.63;12.55;;;;;;;13.48;100.00;101383.88;5061504;28;20033;-85
2022/10/05 02:03:52;;;;;;;19.17;11.25;;;;;;;13.43;100.00;101380.63;5053226;28;20490;-84
2022/10/05 02:06:24;;;;;;;19.55;11.77;;;;;;;13.42;100.00;101382.50;5044361;28;20481;-86
2022/10/05 02:09:27;;;;;;;17.23;11.20;;;;;;;13.37;100.00;101376.50;5061030;28;20061;-85
2022/10/05 02:12:01;;;;;;;35.77;13.87;;;;;;;13.42;100.00;101387.13;5052570;28;20048;-86
2022/10/05 02:14:39;;;;;;;22.65;11.50;;;;;;;13.41;100.00;101386.25;5049795;28;20037;-85
2022/10/05 02:17:13;;;;;;;21.67;11.93;;;;;;;13.44;100.00;101385.13;5044650;28;20032;-85
2022/10/05 02:20:01;;;;;;;23.60;12.13;;;;;;;13.36;100.00;101371.13;5061580;28;20381;-84
2022/10/05 02:22:30;;;;;;;15.63;10.82;;;;;;;13.38;100.00;101374.59;5065641;28;20111;-84
2022/10/05 02:25:02;;;;;;;19.88;11.07;;;;;;;13.28;100.00;101354.34;5053296;28;20036;-85
2022/10/05 02:27:31;;;;;;;22.80;11.75;;;;;;;13.38;100.00;101364.50;5064612;28;20037;-85
2022/10/05 02:30:04;;;;;;;22.92;11.27;;;;;;;13.31;100.00;101352.22;5062561;28;20535;-85
2022/10/05 02:32:48;;;;;;;19.08;11.68;;;;;;;13.31;100.00;101354.97;5042061;28;20028;-84
2022/10/05 02:35:17;;;;;;;15.00;10.55;;;;;;;13.33;100.00;101364.00;5048231;28;20025;-84
2022/10/05 02:37:54;;;;;;;16.88;10.88;;;;;;;13.34;100.00;101363.00;5060529;28;20033;-85
2022/10/05 02:40:53;;;;;;;18.00;11.27;;;;;;;13.34;100.00;101356.63;5049508;28;20036;-85
2022/10/05 02:43:39;;;;;;;20.77;11.20;;;;;;;13.31;100.00;101354.09;5059771;28;20126;-85
2022/10/05 02:46:23;;;;;;;23.58;12.43;;;;;;;13.35;100.00;101355.63;5061837;28;20041;-85
2022/10/05 02:49:26;;;;;;;19.27;11.30;;;;;;;13.33;100.00;101352.13;5049290;28;20021;-84
2022/10/05 02:52:02;;;;;;;;;;;;;;;13.34;100.00;101331.88;5044101;28;20033;-84
2022/10/05 02:55:00;;;;;;;19.15;11.27;;;;;;;13.30;100.00;101336.72;5061074;28;19972;-84
2022/10/05 02:57:33;;;;;;;18.50;11.05;;;;;;;13.29;100.00;101323.09;5066105;28;20037;-85
2022/10/05 03:00:11;;;;;;;21.85;11.93;;;;;;;13.27;100.00;101319.63;5061500;28;20518;-84
2022/10/05 03:03:15;;;;;;;15.75;10.85;;;;;;;13.29;100.00;101323.97;5066665;28;20491;-85
2022/10/05 03:05:57;;;;;;;20.23;11.30;;;;;;;13.27;100.00;101317.72;5041159;28;20037;-85
2022/10/05 03:08:30;;;;;;;24.33;11.43;;;;;;;13.29;100.00;101318.47;5043800;28;20067;-85
2022/10/05 03:11:18;;;;;;;;;;;;;;;13.24;100.00;101318.84;5060162;28;20441;-85
2022/10/05 03:14:00;;;;;;;19.33;10.50;;;;;;;13.22;100.00;101318.09;5038601;28;20000;-85
2022/10/05 03:16:41;;;;;;;23.50;11.00;;;;;;;13.27;100.00;101319.63;5074187;28;20040;-86
2022/10/05 03:19:25;;;;;;;24.75;11.68;;;;;;;13.28;100.00;101313.09;5067949;28;20537;-86
2022/10/05 03:21:56;;;;;;;21.80;11.27;;;;;;;13.30;100.00;101314.72;5060367;28;20032;-86
2022/10/05 03:24:33;;;;;;;21.40;11.85;;;;;;;13.22;100.00;101301.59;5044204;28;20029;-85
2022/10/05 03:27:21;;;;;;;21.55;10.93;;;;;;;13.22;100.00;101303.50;5046124;28;20096;-86
2022/10/05 03:30:02;;;;;;;18.83;11.75;;;;;;;13.19;100.00;101306.50;5044962;28;20484;-86
2022/10/05 03:32:40;;;;;;;22.33;12.35;;;;;;;13.15;100.00;101294.00;5061043;28;20055;-86
2022/10/05 03:35:13;;;;;;;18.65;11.40;;;;;;;13.14;100.00;101303.25;5044129;28;20022;-86
2022/10/05 03:38:03;;;;;;;24.25;11.95;;;;;;;13.13;100.00;101305.09;5051222;28;20435;-86
2022/10/05 03:41:03;;;;;;;23.65;11.57;;;;;;;13.13;100.00;101312.50;5045579;28;20112;-87
2022/10/05 03:44:06;;;;;;;21.27;11.75;;;;;;;13.14;100.00;101297.75;5059547;28;20033;-86
2022/10/05 03:47:13;;;;;;;31.35;13.32;;;;;;;13.10;100.00;101301.75;5062528;28;20419;-86
2022/10/05 03:50:15;;;;;;;23.70;10.68;;;;;;;13.12;100.00;101300.63;5009390;28;20052;-86
2022/10/05 03:52:47;;;;;;;16.50;11.52;;;;;;;13.06;100.00;101310.25;5051892;28;20030;-86
2022/10/05 03:55:23;;;;;;;18.50;11.18;;;;;;;13.03;100.00;101306.88;5059672;28;20029;-86
2022/10/05 03:57:51;;;;;;;25.38;12.00;;;;;;;13.10;100.00;101308.16;5059793;28;20033;-86
2022/10/05 04:00:22;;;;;;;19.35;11.40;;;;;;;13.11;100.00;101312.63;5025302;28;20392;-85
2022/10/05 04:03:08;;;;;;;16.35;10.90;;;;;;;13.04;100.00;101308.66;5035879;28;20025;-85
2022/10/05 04:05:47;;;;;;;28.25;11.90;;;;;;;13.06;100.00;101306.63;5043621;28;20035;-86
2022/10/05 04:08:20;;;;;;;17.70;11.65;;;;;;;13.01;100.00;101312.50;5038258;28;20030;-86
2022/10/05 04:10:50;;;;;;;24.83;11.73;;;;;;;13.03;100.00;101309.63;5044364;28;20056;-86
2022/10/05 04:13:23;;;;;;;22.65;11.40;;;;;;;13.01;100.00;101306.13;5042325;28;20028;-86
2022/10/05 04:16:01;;;;;;;19.38;10.68;;;;;;;12.90;100.00;101290.50;5059190;28;20033;-86
2022/10/05 04:18:42;;;;;;;20.02;11.27;;;;;;;13.03;100.00;101309.63;5063737;28;20024;-86
2022/10/05 04:21:27;;;;;;;20.25;11.77;;;;;;;13.01;100.00;101311.63;5052108;28;20492;-86
2022/10/05 04:24:17;;;;;;;21.20;12.40;;;;;;;13.01;100.00;101306.13;5040177;28;20029;-86
2022/10/05 04:26:49;;;;;;;22.50;11.75;;;;;;;13.01;100.00;101315.25;5041799;28;20120;-86
2022/10/05 04:29:32;;;;;;;19.73;11.85;;;;;;;13.05;100.00;101315.88;5059372;28;20029;-85
2022/10/05 04:32:16;;;;;;;18.52;11.13;;;;;;;13.02;100.00;101300.53;5058571;28;20021;-86
2022/10/05 04:34:54;;;;;;;23.73;12.65;;;;;;;13.06;100.00;101306.63;5034947;28;20026;-85
2022/10/05 04:37:34;;;;;;;22.95;12.60;;;;;;;13.01;100.00;101301.50;5061096;28;20033;-85
2022/10/05 04:40:27;;;;;;;22.88;12.15;;;;;;;13.07;100.00;101297.41;5066373;28;20491;-86
2022/10/05 04:42:55;;;;;;;20.02;11.35;;;;;;;13.11;100.00;101298.00;5046265;28;20045;-86
2022/10/05 04:45:30;;;;;;;23.75;11.73;;;;;;;13.10;100.00;101305.41;5043798;28;20047;-86
2022/10/05 04:48:01;;;;;;;19.45;11.32;;;;;;;13.07;100.00;101294.66;5076447;28;20195;-86
2022/10/05 04:50:37;;;;;;;23.08;12.30;;;;;;;13.13;100.00;101301.50;5029355;28;20369;-87
2022/10/05 04:53:16;;;;;;;28.17;12.40;;;;;;;13.14;100.00;101306.00;5058505;28;20036;-87
2022/10/05 04:55:52;;;;;;;26.77;12.68;;;;;;;13.11;100.00;101303.50;5057252;28;20037;-86
2022/10/05 04:58:47;;;;;;;28.63;13.07;;;;;;;13.13;100.00;101293.25;5075512;28;20114;-86
2022/10/05 05:01:19;;;;;;;21.90;12.80;;;;;;;13.13;100.00;101287.75;5049580;28;20033;-86
2022/10/05 05:04:00;;;;;;;23.40;11.98;;;;;;;13.12;100.00;101289.63;5038943;28;20029;-87
2022/10/05 05:06:41;;;;;;;21.17;11.27;;;;;;;13.13;100.00;101290.50;5057856;28;20072;-87
2022/10/05 05:09:31;;;;;;;19.60;11.15;;;;;;;13.12;100.00;101288.75;5058209;28;20045;-86
2022/10/05 05:12:09;;;;;;;28.45;12.18;;;;;;;13.13;100.00;101287.75;5035649;28;20037;-88
2022/10/05 05:14:37;;;;;;;23.00;12.07;;;;;;;13.12;100.00;101289.63;5035833;28;20037;-87
2022/10/05 05:17:32;;;;;;;20.40;11.25;;;;;;;13.07;100.00;101291.91;5037310;28;20030;-87
2022/10/05 05:20:22;;;;;;;20.17;11.82;;;;;;;13.12;100.00;101288.75;5026142;28;20033;-85
2022/10/05 05:22:51;;;;;;;27.98;11.70;;;;;;;13.08;100.00;101284.50;5039404;28;20029;-86
2022/10/05 05:25:35;;;;;;;25.92;12.00;;;;;;;13.07;100.00;101289.16;5054292;28;20099;-86
2022/10/05 05:28:10;;;;;;;20.73;11.07;;;;;;;13.08;100.00;101284.50;5059663;28;20036;-87
2022/10/05 05:30:55;;;;;;;17.83;10.93;;;;;;;13.01;100.00;101275.91;5060977;28;20469;-86
2022/10/05 05:34:15;;;;;;;19.25;11.10;;;;;;;13.05;100.00;101283.78;5026886;28;20029;-87
2022/10/05 05:36:40;;;;;;;26.95;12.63;;;;;;;13.09;100.00;101278.88;5018098;28;20030;-86
2022/10/05 05:39:28;;;;;;;20.75;11.02;;;;;;;13.12;100.00;101286.00;5040771;28;20051;-87
2022/10/05 05:41:59;;;;;;;16.70;9.98;;;;;;;13.14;100.00;101284.00;5035325;28;20033;-87
2022/10/05 05:44:28;;;;;;;23.40;11.15;;;;;;;13.11;100.00;101282.38;5045103;28;20029;-86
2022/10/05 05:47:09;;;;;;;19.38;10.25;;;;;;;13.13;100.00;101282.25;5046038;28;20029;-86
2022/10/05 05:49:54;;;;;;;24.10;11.48;;;;;;;13.16;100.00;101284.75;5061699;28;20041;-86
2022/10/05 05:52:27;;;;;;;17.40;11.18;;;;;;;13.17;100.00;101275.50;5044677;28;20542;-87
2022/10/05 05:55:04;;;;;;;18.45;10.02;;;;;;;13.18;100.00;101272.63;5034568;28;20021;-86
2022/10/05 05:57:48;;;;;;;19.38;10.50;;;;;;;13.22;100.00;101276.00;5045317;28;20041;-86
2022/10/05 06:00:13;;;;;;;17.95;10.25;;;;;;;13.23;100.00;101273.13;5043700;28;20465;-86
2022/10/05 06:03:00;;;;;;;17.08;9.55;;;;;;;13.29;100.00;101276.34;5059920;28;20041;-86
2022/10/05 06:05:39;;;;;;;26.75;12.95;;;;;;;13.27;100.00;101275.63;5062940;28;20032;-87
2022/10/05 06:08:24;;;;;;;20.27;9.75;;;;;;;13.29;100.00;101268.97;5077395;28;20173;-87
2022/10/05 06:10:56;;;;;;;23.30;9.48;;;;;;;13.33;100.00;101272.34;5051763;28;20048;-86
2022/10/05 06:13:33;;;;;;;19.30;10.30;;;;;;;13.33;100.00;101269.59;5036778;28;20056;-85
2022/10/05 06:16:19;;;;;;;16.83;9.40;;;;;;;13.35;100.00;101263.00;5043940;28;20024;-84
2022/10/05 06:18:58;;;;;;;15.80;8.80;;;;;;;13.42;100.00;101263.34;5058694;28;20070;-85
2022/10/05 06:21:45;;;;;;;17.08;9.15;;;;;;;13.46;100.00;101269.44;5061001;28;20116;-85
2022/10/05 06:24:47;;;;;;;20.20;8.75;;;;;;;13.49;100.00;101266.44;5044535;28;20403;-85
2022/10/05 06:27:33;;;;;;;20.70;8.63;;;;;;;13.51;100.00;101269.94;5045125;28;20103;-86
2022/10/05 06:30:16;;;;;;;18.92;9.20;;;;;;;13.56;100.00;101263.03;5059879;28;20071;-86
2022/10/05 06:33:13;;;;;;;16.35;8.73;;;;;;;13.57;100.00;101252.91;5058654;28;20504;-86
2022/10/05 06:36:04;;;;;;;20.80;8.57;;;;;;;13.58;100.00;101263.78;5020027;28;20508;-86
2022/10/05 06:38:32;;;;;;;18.92;7.93;;;;;;;13.62;100.00;101267.13;5046962;28;20361;-85
2022/10/05 06:41:22;;;;;;;14.02;8.55;;;;;;;13.63;100.00;101271.66;5062782;28;20029;-84
2022/10/05 06:44:00;;;;;;;13.43;7.53;;;;;;;13.71;100.00;101268.25;5048255;28;20468;-84
2022/10/05 06:46:59;;;;;;;21.80;8.40;;;;;;;13.74;100.00;101267.97;5061196;28;20037;-84
2022/10/05 06:49:59;;;;;;;15.32;8.05;;;;;;;13.76;100.00;101266.84;5060480;28;20075;-85
2022/10/05 06:52:46;;;;;;;15.00;8.38;;;;;;;13.76;100.00;101268.72;5040053;28;20037;-86
2022/10/05 06:55:26;;;;;;;13.48;7.53;;;;;;;13.83;100.00;101263.56;5023846;28;20101;-86
2022/10/05 06:57:57;;;;;;;16.98;7.82;;;;;;;13.87;100.00;101270.53;5037351;28;20488;-86
2022/10/05 07:00:41;;;;;;;15.88;8.27;;;;;;;13.88;100.00;101256.63;5059214;28;20068;-86
2022/10/05 07:03:19;;;;;;;10.48;6.88;;;;;;;13.95;100.00;101265.22;5041273;28;20124;-86
2022/10/05 07:05:50;;;;;;;14.35;7.63;;;;;;;13.97;100.00;101261.34;5058904;28;20033;-86
2022/10/05 07:08:34;;;;;;;11.00;6.60;;;;;;;14.01;100.00;101256.44;5041661;28;20028;-87
2022/10/05 07:11:19;;;;;;;14.55;7.63;;;;;;;14.05;100.00;101260.69;5042171;28;20072;-87
2022/10/05 07:14:05;;;;;;;13.32;6.90;;;;;;;14.09;100.00;101250.28;5039268;28;20452;-86
2022/10/05 07:16:51;;;;;;;10.82;7.03;;;;;;;14.18;100.00;101254.09;5049647;28;20052;-86
2022/10/05 07:19:40;;;;;;;13.73;7.15;;;;;;;14.23;100.00;101257.31;5054582;28;20022;-87
2022/10/05 07:22:15;;;;;;;11.30;6.07;;;;;;;14.29;100.00;101265.03;5054779;28;20381;-86
2022/10/05 07:25:09;;;;;;;11.10;6.28;;;;;;;14.34;100.00;101260.00;5056001;28;20035;-86
2022/10/05 07:27:43;;;;;;;13.05;6.57;;;;;;;14.38;100.00;101264.22;5053518;28;20029;-86
2022/10/05 07:30:11;;;;;;;17.88;6.25;;;;;;;14.42;100.00;101271.19;5048402;28;20094;-86
2022/10/05 07:32:54;;;;;;;11.90;6.25;;;;;;;14.46;100.00;101269.94;5051801;28;20079;-86
2022/10/05 07:38:31;;;;;;;11.45;5.57;;;;;;;14.58;100.00;101265.19;5061372;28;20068;-86
2022/10/05 07:41:11;;;;;;;11.25;5.85;;;;;;;14.56;100.00;101264.47;5059309;28;20029;-85
2022/10/05 07:43:47;;;;;;;8.20;5.75;;;;;;;14.69;100.00;101273.41;5059690;28;20106;-86
2022/10/05 07:46:23;;;;;;;9.73;5.95;;;;;;;14.61;100.00;101264.97;5043400;28;20162;-85
2022/10/05 07:49:02;;;;;;;8.65;5.15;;;;;;;14.68;100.00;101274.41;5060776;28;20087;-85
2022/10/05 07:51:44;;;;;;;9.93;5.47;;;;;;;14.77;100.00;101274.59;5061685;28;20452;-85
2022/10/05 07:54:15;;;;;;;11.80;5.60;;;;;;;14.79;100.00;101278.06;5060716;28;20477;-85
2022/10/05 07:56:44;;;;;;;8.18;4.60;;;;;;;14.80;100.00;101279.81;5044414;28;20530;-85
2022/10/05 07:59:29;;;;;;;9.85;5.28;;;;;;;14.79;100.00;101278.06;5054855;28;20033;-86
2022/10/05 08:02:09;;;;;;;7.63;5.38;;;;;;;14.80;100.00;101274.31;5060380;28;20033;-85
2022/10/05 08:04:49;;;;;;;7.70;5.40;;;;;;;14.88;100.00;101280.88;5056669;28;20029;-86
2022/10/05 08:07:16;;;;;;;9.07;5.57;;;;;;;14.94;100.00;101275.81;5065854;28;20025;-86
2022/10/05 08:09:48;;;;;;;12.52;5.60;;;;;;;14.99;100.00;101287.31;5060981;28;20041;-86
2022/10/05 08:12:33;;;;;;;13.10;5.65;;;;;;;15.05;100.00;101267.44;5060052;28;20036;-86
2022/10/05 08:15:19;;;;;;;10.32;5.28;;;;;;;15.09;100.00;101273.56;5056626;28;20029;-86
2022/10/05 08:18:03;;;;;;;6.50;5.18;;;;;;;15.09;100.00;101268.91;5059225;28;20112;-86
2022/10/05 08:20:43;;;;;;;8.18;5.35;;;;;;;15.12;100.00;101270.50;5060440;28;20033;-87
2022/10/05 08:23:12;;;;;;;12.35;6.53;;;;;;;15.17;100.00;101269.06;5060028;28;20033;-86
2022/10/05 08:25:49;;;;;;;11.57;5.53;;;;;;;15.17;100.00;101260.81;5058584;28;20546;-87
2022/10/05 08:28:21;;;;;;;10.27;4.90;;;;;;;15.27;100.00;101263.56;5055372;28;20024;-86
2022/10/05 08:31:02;;;;;;;8.25;5.10;;;;;;;15.30;100.00;101257.78;5055099;28;20033;-87
2022/10/05 08:33:36;;;;;;;13.23;5.35;;;;;;;15.32;100.00;101252.97;5044844;28;20045;-86
2022/10/05 08:36:13;;;;;;;8.45;5.07;;;;;;;15.41;100.00;101248.47;5042983;28;20040;-86
2022/10/05 08:38:39;;;;;;;12.70;5.05;;;;;;;15.50;100.00;101246.78;5055789;28;20026;-86
2022/10/05 08:41:33;;;;;;;9.75;5.00;;;;;;;15.49;100.00;101233.97;5022780;28;20033;-86
2022/10/05 08:44:36;;;;;;;9.45;5.10;;;;;;;15.68;100.00;101249.69;5038727;28;20034;-86
2022/10/05 08:47:24;;;;;;;9.13;5.05;;;;;;;15.71;100.00;101244.75;5039685;28;20029;-87
2022/10/05 08:50:18;;;;;;;5.60;4.60;;;;;;;15.77;100.00;101251.59;5041895;28;20033;-86
2022/10/05 08:53:02;;;;;;;17.52;5.15;;;;;;;15.83;100.00;101241.88;5060204;28;20049;-86
2022/10/05 08:55:30;;;;;;;7.18;4.68;;;;;;;15.93;100.00;101242.72;5059703;28;20476;-86
2022/10/05 08:58:02;;;;;;;12.52;5.72;;;;;;;15.91;100.00;101242.88;5076779;28;20481;-85
2022/10/05 09:00:52;;;;;;;6.80;4.67;;;;;;;16.01;100.00;101239.22;5043190;28;20013;-86
2022/10/05 09:03:34;;;;;;;11.23;4.18;;;;;;;16.02;100.00;101247.38;5061191;28;20032;-86
2022/10/05 09:06:18;;;;;;;8.48;4.85;;;;;;;16.07;100.00;101233.09;5061336;28;20025;-84
2022/10/05 09:09:05;;;;;;;12.30;5.35;;;;;;;15.95;100.00;101230.53;5064444;28;20057;-85
2022/10/05 09:11:36;;;;;;;6.55;3.90;;;;;;;16.08;100.00;101237.59;5045250;28;20025;-86
2022/10/05 09:14:19;;;;;;;7.93;4.13;;;;;;;16.16;100.00;101233.06;5064076;28;20074;-86
2022/10/05 09:17:05;;;;;;;7.07;4.18;;;;;;;16.21;100.00;101235.41;5063322;28;20039;-86
2022/10/05 09:19:51;;;;;;;8.70;3.80;;;;;;;16.19;100.00;101234.69;5062839;28;20115;-86
2022/10/05 09:22:37;;;;;;;8.77;4.50;;;;;;;16.35;100.00;101236.81;5042521;28;20544;-86
2022/10/05 09:25:15;;;;;;;7.32;3.90;;;;;;;16.34;100.00;101227.66;5026506;28;20029;-85
2022/10/05 09:28:15;;;;;;;7.05;3.67;;;;;;;16.38;100.00;101236.53;5046227;28;20037;-86
2022/10/05 09:30:56;;;;;;;10.00;4.10;;;;;;;16.51;100.00;101231.53;5051674;28;20096;-86
2022/10/05 09:33:25;;;;;;;6.82;3.60;;;;;;;16.41;100.00;101227.06;5062624;28;20087;-85
2022/10/05 09:36:14;;;;;;;5.93;3.83;;;;;;;16.52;100.00;101224.09;5046800;28;20060;-86
2022/10/05 09:38:58;;;;;;;5.38;3.67;;;;;;;16.56;100.00;101228.31;5045999;28;20040;-86
2022/10/05 09:41:58;;;;;;;6.57;3.58;;;;;;;16.67;100.00;101224.47;5042556;28;20037;-86
2022/10/05 09:44:29;;;;;;;15.70;3.90;;;;;;;16.60;100.00;101220.59;5040487;28;20037;-86
2022/10/05 09:47:11;;;;;;;9.50;3.65;;;;;;;16.67;100.00;101219.81;5045377;28;20025;-86
2022/10/05 09:50:24;;;;;;;5.97;3.25;;;;;;;16.71;100.00;101215.72;5046175;28;20101;-85
2022/10/05 09:53:28;;;;;;;6.95;2.90;;;;;;;16.73;100.00;101208.16;5030509;28;20098;-84
2022/10/05 09:56:13;;;;;;;6.05;3.63;;;;;;;16.75;100.00;101219.06;5033506;28;20033;-85
2022/10/05 09:58:57;;;;;;;14.27;3.08;;;;;;;16.91;100.00;101210.13;5064706;28;20039;-86
2022/10/05 10:02:01;;;;;;;14.38;2.58;;;;;;;16.98;100.00;101208.47;5057820;28;20021;-85
2022/10/05 10:04:47;;;;;;;5.70;3.13;;;;;;;17.05;100.00;101197.66;5046075;28;20032;-86
2022/10/05 10:07:30;;;;;;;7.10;3.40;;;;;;;17.11;100.00;101205.34;5040983;28;20037;-85
2022/10/05 10:10:14;;;;;;;5.05;2.63;;;;;;;17.26;100.00;101200.13;5027847;28;20065;-86
2022/10/05 10:12:58;;;;;;;8.38;2.60;;;;;;;17.45;100.00;101204.66;5034949;28;20024;-87
2022/10/05 10:15:58;;;;;;;5.20;2.38;;;;;;;17.51;100.00;101192.97;5057647;28;20044;-86
2022/10/05 10:18:31;;;;;;;4.95;2.80;;;;;;;17.52;100.00;101191.91;5061396;28;20040;-86
2022/10/05 10:21:09;;;;;;;6.47;3.05;;;;;;;17.69;100.00;101186.53;5056567;28;20037;-86
2022/10/05 10:23:44;;;;;;;12.13;3.00;;;;;;;17.66;100.00;101175.78;5040978;28;20037;-87
2022/10/05 10:26:23;;;;;;;7.15;2.67;;;;;;;17.95;100.00;101184.69;5047264;28;20060;-87
2022/10/05 10:29:06;;;;;;;5.35;2.95;;;;;;;17.92;100.00;101182.25;5043247;28;20013;-86
2022/10/05 10:31:34;;;;;;;;;;;;;;;18.01;100.00;101180.41;5059712;28;20492;-86
2022/10/05 10:34:16;;;;;;;5.75;2.70;;;;;;;18.07;100.00;101179.78;5042631;28;19916;-87
2022/10/05 10:37:01;;;;;;;5.07;2.47;;;;;;;18.19;100.00;101183.13;5043865;28;20096;-87
2022/10/05 10:39:49;;;;;;;4.03;2.40;;;;;;;18.33;100.00;101173.31;5063654;28;20089;-86
2022/10/05 10:42:33;;;;;;;3.85;2.35;;;;;;;18.37;100.00;101175.59;5029901;28;20057;-85
2022/10/05 10:45:18;;;;;;;4.03;2.35;;;;;;;18.49;100.00;101169.78;5044526;28;20033;-87
2022/10/05 10:47:54;;;;;;;2.42;2.05;;;;;;;18.42;100.00;101163.16;5053288;28;20052;-87
2022/10/05 10:50:37;;;;;;;4.22;2.20;;;;;;;18.50;100.00;101155.75;5038713;28;20112;-87
2022/10/05 10:53:28;;;;;;;7.78;2.63;;;;;;;18.63;100.00;101157.22;5045228;28;20037;-86
2022/10/05 10:56:03;;;;;;;7.47;2.20;;;;;;;18.70;100.00;101149.94;5044397;28;20028;-87
2022/10/05 10:58:32;;;;;;;3.38;2.25;;;;;;;18.63;100.00;101152.53;5062417;28;20063;-87
2022/10/05 11:01:09;;;;;;;3.17;1.88;;;;;;;18.51;100.00;101145.53;5042971;28;20547;-87
2022/10/05 11:04:04;;;;;;;7.22;2.20;;;;;;;18.97;100.00;101150.75;5061712;28;20033;-86
2022/10/05 11:07:02;;;;;;;5.78;1.90;;;;;;;19.02;100.00;101146.44;5059673;28;20021;-84
2022/10/05 11:09:55;;;;;;;10.50;2.33;;;;;;;18.95;100.00;101141.72;5044004;28;20048;-87
2022/10/05 11:12:48;;;;;;;4.47;1.83;;;;;;;19.03;100.00;101139.84;5058708;28;20087;-87
2022/10/05 11:15:25;;;;;;;;;;;;;;;19.17;100.00;101129.09;5060204;28;20120;-87
2022/10/05 11:18:16;;;;;;;5.07;2.15;;;;;;;19.21;100.00;101133.28;5042809;28;19915;-87
2022/10/05 11:21:08;;;;;;;5.68;2.15;;;;;;;19.32;100.00;101134.88;5076851;28;20036;-85
2022/10/05 11:23:37;;;;;;;4.97;2.05;;;;;;;19.18;100.00;101126.16;5059103;28;20035;-85
2022/10/05 11:26:41;;;;;;;4.90;2.10;;;;;;;19.45;100.00;101126.88;5058020;28;20039;-85
2022/10/05 11:29:25;;;;;;;8.93;1.80;;;;;;;19.50;100.00;101115.25;5032047;28;20441;-85
2022/10/05 11:31:57;;;;;;;6.03;1.80;;;;;;;19.63;100.00;101110.03;5022049;28;20120;-86
2022/10/05 11:34:42;;;;;;;2.70;1.70;;;;;;;19.62;100.00;101100.81;5023016;28;20036;-86
2022/10/05 11:37:18;;;;;;;5.68;1.58;;;;;;;20.00;100.00;101094.72;5038059;28;20051;-86
2022/10/05 11:40:06;;;;;;;3.72;1.70;;;;;;;19.72;100.00;101091.44;5033494;28;20028;-86
2022/10/05 11:42:48;;;;;;;3.53;1.73;;;;;;;19.85;100.00;101090.94;5039679;28;20040;-85
2022/10/05 11:45:48;;;;;;;2.88;1.75;;;;;;;20.15;100.00;101086.50;5041333;28;20033;-85
2022/10/05 11:48:53;;;;;;;3.38;1.75;;;;;;;19.81;100.00;101084.88;5041903;28;20094;-85
2022/10/05 11:51:57;;;;;;;3.97;1.42;;;;;;;19.76;100.00;101076.22;5039429;28;20022;-84
2022/10/05 11:54:40;;;;;;;3.50;1.60;;;;;;;19.99;100.00;101066.06;5051067;28;20029;-84
2022/10/05 11:57:28;;;;;;;4.55;1.60;;;;;;;20.11;100.00;101087.91;5041728;28;20056;-86
2022/10/05 12:00:14;;;;;;;5.25;1.40;;;;;;;20.36;100.00;101075.63;5056822;28;20025;-85
2022/10/05 12:03:17;;;;;;;6.18;1.63;;;;;;;20.14;100.00;101065.31;5055633;28;20059;-85
2022/10/05 12:05:51;;;;;;;5.10;1.40;;;;;;;20.20;100.00;101057.13;5057902;28;20032;-84
2022/10/05 12:08:32;;;;;;;2.83;1.30;;;;;;;20.16;100.00;101050.19;5057785;28;20495;-84
2022/10/05 12:11:13;;;;;;;2.38;1.27;;;;;;;20.53;100.00;101056.97;5058563;28;20384;-85
2022/10/05 12:13:47;;;;;;;2.58;1.25;;;;;;;20.90;100.00;101048.94;5059691;28;20036;-85
2022/10/05 12:16:27;;;;;;;5.10;1.30;;;;;;;20.56;100.00;101048.25;5039692;28;20028;-84
2022/10/05 12:18:56;;;;;;;5.28;1.33;;;;;;;20.26;100.00;101038.00;5040072;28;20025;-84